Terminal Aerodrome Forecast
Issued by NWS Portland, OR

Current Version | Previous Version | Text Only | Print | Product List | Glossary On
Versions: 1 2 3 4 5 6 7 8 9 10 11 12 13 14
000
FTUS46 KPQR 272334
TAFHIO
TAF
KHIO 272334Z 2800/2824 01011KT P6SM SKC
     FM280700 33004KT P6SM SKC
     FM281000 00000KT P6SM SKC
     FM282100 01007KT P6SM SKC=

USA.gov is the U.S. government's official web portal to all federal, state and local government web resources and services.